Terminal Aerodrome Forecast
Issued by NWS

Home | Current Version | Previous Version | Text Only | Print | Product List | Glossary On
Versions: 1 2 3 4 5 6 7 8 9 10 11 12 13 14 15 16
000
FTUS44 KTSA 250856 AAA
TAFXNA
TAF AMD
KXNA 250856Z 2509/2606 25015KT 4SM -TSRA SCT015 BKN035CB
      TEMPO 2509/2510 25025G33KT 2SM +TSRA BKN015CB
     FM251000 11012KT P6SM VCTS BKN035CB
     FM251200 18012KT P6SM OVC020
     FM252100 18013G19KT P6SM BKN040
     FM260200 17009KT P6SM BKN100=

USA.gov is the U.S. government's official web portal to all federal, state and local government web resources and services.